Terminal Aerodrome Forecast
Issued by NWS

Home | Current Version | Previous Version | Text Only | Print | Product List | Glossary On
Versions: 1 2 3 4 5 6 7 8 9 10 11 12 13 14 15 16 17 18 19 20 21 22 23 24 25 26 27 28 29 30
891
FTUS43 KOAX 261120
TAFCDR
TAF
KCDR 261120Z 2612/2712 14006KT P6SM SCT120
      TEMPO 2612/2614 3SM BR SCT015
     FM261400 13012KT P6SM SCT080
     FM261900 15010G20KT P6SM BKN080
     FM270000 10012KT P6SM VCSH BKN060
     FM270400 32012KT P6SM BKN060=

USA.gov is the U.S. government's official web portal to all federal, state and local government web resources and services.